createdAt,value
2022-10-29T00:00:55.589Z,363.20
2022-10-29T00:03:23.076Z,357.65
2022-10-29T00:06:01.294Z,361.55
2022-10-29T00:08:29.178Z,356.08
2022-10-29T00:10:56.592Z,349.88
2022-10-29T00:13:23.362Z,352.27
2022-10-29T00:15:49.902Z,352.00
2022-10-29T00:18:16.445Z,371.07
2022-10-29T00:20:43.022Z,375.48
2022-10-29T00:23:09.769Z,349.40
2022-10-29T00:25:36.369Z,346.33
2022-10-29T00:28:02.944Z,370.92
2022-10-29T00:30:29.508Z,368.40
2022-10-29T00:32:56.329Z,383.35
2022-10-29T00:35:23.188Z,356.27
2022-10-29T00:37:49.693Z,360.33
2022-10-29T00:40:16.376Z,380.23
2022-10-29T00:42:42.925Z,357.42
2022-10-29T00:45:19.380Z,373.80
2022-10-29T00:47:50.908Z,361.30
2022-10-29T00:50:20.643Z,364.67
2022-10-29T00:52:49.446Z,372.83
2022-10-29T00:55:17.319Z,367.30
2022-10-29T00:57:50.122Z,362.73
2022-10-29T01:00:18.794Z,352.33
2022-10-29T01:02:45.925Z,349.40
2022-10-29T01:05:17.205Z,358.33
2022-10-29T01:07:44.095Z,364.55
2022-10-29T01:10:12.405Z,365.35
2022-10-29T01:12:52.783Z,367.05
2022-10-29T01:15:38.057Z,360.80
2022-10-29T01:18:16.695Z,369.67
2022-10-29T01:21:32.426Z,370.27
2022-10-29T01:24:23.507Z,381.40
2022-10-29T01:27:24.467Z,360.20
2022-10-29T01:30:09.349Z,365.77
2022-10-29T01:32:51.250Z,363.50
2022-10-29T01:35:38.480Z,359.25
2022-10-29T01:38:18.040Z,366.40
2022-10-29T01:41:09.831Z,351.42
2022-10-29T01:44:26.947Z,364.52
2022-10-29T01:47:00.374Z,356.85
2022-10-29T01:49:34.771Z,344.60
2022-10-29T01:52:04.076Z,351.88
2022-10-29T01:54:30.625Z,366.03
2022-10-29T01:56:58.643Z,353.23
2022-10-29T01:59:36.386Z,366.50
2022-10-29T02:02:30.658Z,356.27
2022-10-29T02:05:12.562Z,378.00
2022-10-29T02:07:58.294Z,375.33
2022-10-29T02:10:33.961Z,371.97
2022-10-29T02:13:00.867Z,369.40
2022-10-29T02:15:35.561Z,357.48
2022-10-29T02:18:05.009Z,359.98
2022-10-29T02:20:31.639Z,364.65
2022-10-29T02:22:58.558Z,340.95
2022-10-29T02:25:25.283Z,366.70
2022-10-29T02:27:52.135Z,352.08
2022-10-29T02:30:19.276Z,349.47
2022-10-29T02:32:45.807Z,363.80
2022-10-29T02:35:12.417Z,357.30
2022-10-29T02:37:38.984Z,363.08
2022-10-29T02:40:06.070Z,350.27
2022-10-29T02:42:32.604Z,358.75
2022-10-29T02:44:59.162Z,346.42
2022-10-29T02:47:25.750Z,339.05
2022-10-29T02:49:52.279Z,351.20
2022-10-29T02:52:19.076Z,348.67
2022-10-29T02:54:46.020Z,346.13
2022-10-29T02:57:12.533Z,339.20
2022-10-29T02:59:39.095Z,346.58
2022-10-29T03:02:05.870Z,329.27
2022-10-29T03:04:32.987Z,330.57
2022-10-29T03:07:00.201Z,317.27
2022-10-29T03:09:26.739Z,319.02
2022-10-29T03:11:53.346Z,321.45
2022-10-29T03:14:19.919Z,334.55
2022-10-29T03:16:46.452Z,331.80
2022-10-29T03:19:13.078Z,326.70
2022-10-29T03:21:39.596Z,319.92
2022-10-29T03:24:06.473Z,314.58
2022-10-29T03:26:33.022Z,317.20
2022-10-29T03:28:59.667Z,317.93
2022-10-29T03:31:26.214Z,325.52
2022-10-29T03:33:52.778Z,329.80
2022-10-29T03:36:19.402Z,329.42
2022-10-29T03:38:45.990Z,321.90
2022-10-29T03:41:12.694Z,339.58
2022-10-29T03:43:39.496Z,340.88
2022-10-29T03:46:06.299Z,338.88
2022-10-29T03:48:33.206Z,339.95
2022-10-29T03:51:01.820Z,336.15
2022-10-29T03:53:29.441Z,335.67
2022-10-29T03:55:57.208Z,348.27
2022-10-29T03:58:25.342Z,332.67
2022-10-29T04:01:00.525Z,350.33
2022-10-29T04:03:28.823Z,360.98
2022-10-29T04:05:56.124Z,354.07
2022-10-29T04:08:22.766Z,351.38
2022-10-29T04:10:50.906Z,342.20
2022-10-29T04:13:18.283Z,337.98
2022-10-29T04:15:45.529Z,349.97
2022-10-29T04:18:12.697Z,343.33
2022-10-29T04:20:57.002Z,339.00
2022-10-29T04:29:00.509Z,347.63
2022-10-29T04:31:27.064Z,337.15
2022-10-29T04:33:53.954Z,336.77
2022-10-29T04:36:20.557Z,328.95
2022-10-29T04:38:47.203Z,336.65
2022-10-29T04:41:13.721Z,355.15
2022-10-29T04:43:40.308Z,347.42
2022-10-29T04:46:06.926Z,355.55
2022-10-29T04:48:33.577Z,332.27
2022-10-29T04:51:00.190Z,332.95
2022-10-29T04:53:26.808Z,346.23
2022-10-29T04:55:59.812Z,356.63
2022-10-29T04:58:26.423Z,345.00
2022-10-29T05:00:53.083Z,353.85
2022-10-29T05:03:19.744Z,341.27
2022-10-29T05:05:46.256Z,348.73
2022-10-29T05:08:13.190Z,343.08
2022-10-29T05:10:40.156Z,331.17
2022-10-29T05:13:10.479Z,329.90
2022-10-29T05:15:37.733Z,336.98
2022-10-29T05:18:05.301Z,347.05
2022-10-29T05:20:31.873Z,345.53
2022-10-29T05:23:06.395Z,336.35
2022-10-29T05:25:35.589Z,344.85
2022-10-29T05:28:05.097Z,342.27
2022-10-29T05:30:33.014Z,346.83
2022-10-29T05:32:59.740Z,340.75
2022-10-29T05:35:27.104Z,341.63
2022-10-29T05:37:55.168Z,339.23
2022-10-29T05:40:22.940Z,350.33
2022-10-29T05:42:50.043Z,350.27
2022-10-29T05:45:16.867Z,349.05
2022-10-29T05:47:43.771Z,341.40
2022-10-29T05:50:11.565Z,344.17
2022-10-29T05:52:38.659Z,341.60
2022-10-29T05:55:06.459Z,327.50
2022-10-29T05:57:33.128Z,329.63
2022-10-29T05:59:59.837Z,342.40
2022-10-29T06:02:26.511Z,331.75
2022-10-29T06:04:53.090Z,340.83
2022-10-29T06:07:19.667Z,347.10
2022-10-29T06:09:46.248Z,343.35
2022-10-29T06:12:12.805Z,334.75
2022-10-29T06:14:39.385Z,341.55
2022-10-29T06:17:05.913Z,344.88
2022-10-29T06:19:32.728Z,348.23
2022-10-29T06:22:00.460Z,367.05
2022-10-29T06:24:27.570Z,361.10
2022-10-29T06:26:54.668Z,377.75
2022-10-29T06:29:21.297Z,384.67
2022-10-29T06:31:47.876Z,368.58
2022-10-29T06:34:14.908Z,361.30
2022-10-29T06:36:41.607Z,350.20
2022-10-29T06:39:08.317Z,348.40
2022-10-29T06:41:34.861Z,364.40
2022-10-29T06:44:01.555Z,361.77
2022-10-29T06:46:28.143Z,342.48
2022-10-29T06:48:54.715Z,351.75
2022-10-29T06:53:54.814Z,360.30
2022-10-29T06:56:21.907Z,357.13
2022-10-29T06:58:48.491Z,358.02
2022-10-29T07:01:15.107Z,351.20
2022-10-29T07:03:41.683Z,333.15
2022-10-29T07:06:08.190Z,352.40
2022-10-29T07:08:34.844Z,331.27
2022-10-29T07:11:02.828Z,340.60
2022-10-29T07:13:29.413Z,356.15
2022-10-29T07:15:56.011Z,357.92
2022-10-29T07:18:22.501Z,331.73
2022-10-29T07:20:49.070Z,334.40
2022-10-29T07:23:15.816Z,325.75
2022-10-29T07:25:42.541Z,331.55
2022-10-29T07:28:16.490Z,335.70
2022-10-29T07:30:44.088Z,329.85
2022-10-29T07:33:11.120Z,332.20
2022-10-29T07:35:37.824Z,344.75
2022-10-29T07:38:10.477Z,347.30
2022-10-29T07:40:39.919Z,340.65
2022-10-29T07:43:06.539Z,321.40
2022-10-29T07:45:33.315Z,340.33
2022-10-29T07:48:02.876Z,329.83
2022-10-29T07:50:31.579Z,348.23
2022-10-29T07:53:02.258Z,322.35
2022-10-29T07:58:03.872Z,321.70
2022-10-29T08:00:32.121Z,312.83
2022-10-29T08:02:59.029Z,305.00
2022-10-29T08:05:27.023Z,295.27
2022-10-29T08:07:55.346Z,306.33
2022-10-29T08:10:23.247Z,317.33
2022-10-29T08:12:55.303Z,306.80
2022-10-29T08:15:22.943Z,288.75
2022-10-29T08:17:50.441Z,313.02
2022-10-29T08:20:17.807Z,320.75
2022-10-29T08:22:44.417Z,307.35
2022-10-29T08:25:11.958Z,310.13
2022-10-29T08:27:39.082Z,325.60
2022-10-29T08:30:07.812Z,296.50
2022-10-29T08:32:35.506Z,309.75
2022-10-29T08:35:02.605Z,288.35
2022-10-29T08:37:29.183Z,304.30
2022-10-29T08:39:55.766Z,309.85
2022-10-29T08:42:52.868Z,307.65
2022-10-29T08:45:34.983Z,283.73
2022-10-29T08:48:20.144Z,279.70
2022-10-29T08:51:14.105Z,284.25
2022-10-29T08:53:54.133Z,307.97
2022-10-29T08:56:43.647Z,309.48
2022-10-29T08:59:20.376Z,301.98
2022-10-29T09:01:47.723Z,317.25
2022-10-29T09:04:22.722Z,297.63
2022-10-29T09:07:14.626Z,295.77
2022-10-29T09:10:04.575Z,297.02
2022-10-29T09:12:56.606Z,281.85
2022-10-29T09:15:44.581Z,264.20
2022-10-29T09:18:35.956Z,242.88
2022-10-29T09:21:26.862Z,251.47
2022-10-29T09:24:32.040Z,265.03
2022-10-29T09:27:00.622Z,250.57
2022-10-29T09:29:48.770Z,272.93
2022-10-29T09:32:29.490Z,254.90
2022-10-29T09:35:01.733Z,277.17
2022-10-29T09:37:41.003Z,267.52
2022-10-29T09:40:21.059Z,265.27
2022-10-29T09:42:48.127Z,258.42
2022-10-29T09:45:18.142Z,277.05
2022-10-29T09:48:02.616Z,283.60
2022-10-29T09:50:40.651Z,287.17
2022-10-29T09:53:08.538Z,276.25
2022-10-29T09:55:43.818Z,262.17
2022-10-29T09:58:20.938Z,270.67
2022-10-29T10:00:47.487Z,267.00
2022-10-29T10:03:23.396Z,254.95
2022-10-29T10:06:10.286Z,267.85
2022-10-29T10:09:04.882Z,288.48
2022-10-29T10:11:54.267Z,281.92
2022-10-29T10:14:22.823Z,293.30
2022-10-29T10:16:58.340Z,286.80
2022-10-29T10:19:27.958Z,287.40
2022-10-29T10:22:03.100Z,286.47
2022-10-29T10:24:32.304Z,302.02
2022-10-29T10:26:59.013Z,305.98
2022-10-29T10:29:26.436Z,297.27
2022-10-29T10:31:55.709Z,279.75
2022-10-29T10:34:36.310Z,301.80
2022-10-29T10:37:05.228Z,284.83
2022-10-29T10:39:55.858Z,290.83
2022-10-29T10:42:28.769Z,276.23
2022-10-29T10:45:01.179Z,284.42
2022-10-29T10:47:33.908Z,275.63
2022-10-29T10:50:28.877Z,283.10
2022-10-29T10:52:58.602Z,283.83
2022-10-29T10:55:34.840Z,264.48
2022-10-29T10:58:26.467Z,267.02
2022-10-29T11:01:02.589Z,264.88
2022-10-29T11:03:34.872Z,263.17
2022-10-29T11:06:13.410Z,271.57
2022-10-29T11:08:53.317Z,266.10
2022-10-29T11:11:39.151Z,260.80
2022-10-29T11:14:21.887Z,265.65
2022-10-29T11:16:55.769Z,252.98
2022-10-29T11:19:57.655Z,254.65
2022-10-29T11:22:52.541Z,252.82
2022-10-29T11:25:29.796Z,259.92
2022-10-29T11:28:11.548Z,248.50
2022-10-29T11:30:50.707Z,273.95
2022-10-29T11:33:24.270Z,283.15
2022-10-29T11:36:14.156Z,282.05
2022-10-29T11:38:47.791Z,291.05
2022-10-29T11:41:39.290Z,286.30
2022-10-29T11:44:12.821Z,274.80
2022-10-29T11:47:04.320Z,282.70
2022-10-29T11:49:45.258Z,279.52
2022-10-29T11:52:23.040Z,272.77
2022-10-29T11:55:19.113Z,271.13
2022-10-29T11:57:55.560Z,338.40
2022-10-29T12:00:27.467Z,343.38
2022-10-29T12:03:19.881Z,344.52
2022-10-29T12:05:53.778Z,355.43
2022-10-29T12:08:29.449Z,357.97
2022-10-29T12:10:58.857Z,353.98
2022-10-29T12:13:47.169Z,342.02
2022-10-29T12:16:24.275Z,338.38
2022-10-29T12:18:55.411Z,324.40
2022-10-29T12:21:34.471Z,335.73
2022-10-29T12:24:03.753Z,324.55
2022-10-29T12:26:36.138Z,312.95
2022-10-29T12:29:22.026Z,290.92
2022-10-29T12:32:14.910Z,282.80
2022-10-29T12:34:46.023Z,248.25
2022-10-29T12:37:12.542Z,237.10
2022-10-29T12:39:44.527Z,220.32
2022-10-29T12:42:22.926Z,211.65
2022-10-29T12:45:17.419Z,198.07
2022-10-29T12:48:13.232Z,179.80
2022-10-29T12:50:51.696Z,197.60
2022-10-29T12:53:33.459Z,186.13
2022-10-29T12:56:00.345Z,168.10
2022-10-29T12:58:45.491Z,147.15
2022-10-29T13:02:05.817Z,143.85
2022-10-29T13:04:30.316Z,162.15
2022-10-29T13:07:00.628Z,187.45
2022-10-29T13:09:29.455Z,209.27
2022-10-29T13:11:56.092Z,219.95
2022-10-29T13:14:51.850Z,238.98
2022-10-29T13:17:27.715Z,240.40
2022-10-29T13:19:58.977Z,243.82
2022-10-29T13:25:44.024Z,242.48
2022-10-29T13:28:10.624Z,244.32
2022-10-29T13:30:41.656Z,254.48
2022-10-29T13:33:26.251Z,266.73
2022-10-29T13:35:57.597Z,253.63
2022-10-29T13:38:36.226Z,259.25
2022-10-29T13:41:28.011Z,255.63
2022-10-29T13:44:05.241Z,251.65
2022-10-29T13:46:57.929Z,250.70
2022-10-29T13:49:36.960Z,250.18
2022-10-29T13:52:09.383Z,243.80
2022-10-29T13:54:47.454Z,252.15
2022-10-29T13:57:50.699Z,226.07
2022-10-29T14:00:19.970Z,229.93
2022-10-29T14:03:15.028Z,217.77
2022-10-29T14:05:47.121Z,232.83
2022-10-29T14:08:54.190Z,230.90
2022-10-29T14:11:26.926Z,236.40
2022-10-29T14:13:58.817Z,242.83
2022-10-29T14:16:30.479Z,236.37
2022-10-29T14:18:57.052Z,248.57
2022-10-29T14:21:29.722Z,251.30
2022-10-29T14:23:58.652Z,243.60
2022-10-29T14:26:27.124Z,238.32
2022-10-29T14:28:53.872Z,238.27
2022-10-29T14:31:26.133Z,237.95
2022-10-29T14:34:00.447Z,235.38
2022-10-29T14:36:40.020Z,250.18
2022-10-29T14:39:12.004Z,253.02
2022-10-29T14:41:39.438Z,272.92
2022-10-29T14:44:15.323Z,253.97
2022-10-29T14:46:44.267Z,261.03
2022-10-29T14:49:23.601Z,286.37
2022-10-29T14:51:52.971Z,297.63
2022-10-29T14:54:28.351Z,309.27
2022-10-29T14:56:59.056Z,302.55
2022-10-29T14:59:29.288Z,288.70
2022-10-29T15:02:05.768Z,295.07
2022-10-29T15:04:50.496Z,305.00
2022-10-29T15:07:29.576Z,299.55
2022-10-29T15:10:08.155Z,287.35
2022-10-29T15:12:37.349Z,271.27
2022-10-29T15:15:18.901Z,266.95
2022-10-29T15:18:00.032Z,256.90
2022-10-29T15:20:32.190Z,251.70
2022-10-29T15:22:59.377Z,265.98
2022-10-29T15:25:35.738Z,254.40
2022-10-29T15:28:03.251Z,268.42
2022-10-29T15:30:37.795Z,266.70
2022-10-29T15:33:18.008Z,250.70
2022-10-29T15:35:53.368Z,281.92
2022-10-29T15:38:35.078Z,276.42
2022-10-29T15:41:19.571Z,258.73
2022-10-29T15:43:55.013Z,265.08
2022-10-29T15:46:36.008Z,255.83
2022-10-29T15:49:02.735Z,242.93
2022-10-29T15:51:31.018Z,234.70
2022-10-29T15:54:01.971Z,232.32
2022-10-29T15:56:30.909Z,232.95
2022-10-29T15:58:59.545Z,234.40
2022-10-29T16:01:26.185Z,244.45
2022-10-29T16:03:54.812Z,233.57
2022-10-29T16:06:21.478Z,259.75
2022-10-29T16:08:51.018Z,245.02
2022-10-29T16:11:21.191Z,247.10
2022-10-29T16:13:54.605Z,246.32
2022-10-29T16:16:23.946Z,251.33
2022-10-29T16:18:51.443Z,266.88
2022-10-29T16:21:25.877Z,260.27
2022-10-29T16:23:52.664Z,267.92
2022-10-29T16:26:23.822Z,256.70
2022-10-29T16:28:52.747Z,256.55
2022-10-29T16:31:23.026Z,264.02
2022-10-29T16:33:51.550Z,265.60
2022-10-29T16:36:18.369Z,267.55
2022-10-29T16:38:44.912Z,281.02
2022-10-29T16:41:16.023Z,263.73
2022-10-29T16:43:43.569Z,251.07
2022-10-29T16:46:11.020Z,274.02
2022-10-29T16:48:37.810Z,286.95
2022-10-29T16:51:04.975Z,257.55
2022-10-29T16:53:31.531Z,280.75
2022-10-29T16:55:58.156Z,272.98
2022-10-29T16:58:24.850Z,282.40
2022-10-29T17:00:51.713Z,302.38
2022-10-29T17:03:18.481Z,283.80
2022-10-29T17:05:46.480Z,281.02
2022-10-29T17:08:13.631Z,287.63
2022-10-29T17:10:40.210Z,291.05
2022-10-29T17:13:11.745Z,294.65
2022-10-29T17:15:41.520Z,282.02
2022-10-29T17:18:08.168Z,290.80
2022-10-29T17:20:34.759Z,289.92
2022-10-29T17:23:01.341Z,281.13
2022-10-29T17:25:27.939Z,308.85
2022-10-29T17:27:54.911Z,297.00
2022-10-29T17:30:21.660Z,298.20
2022-10-29T17:32:48.202Z,299.77
2022-10-29T17:35:14.863Z,312.65
2022-10-29T17:37:41.377Z,294.15
2022-10-29T17:40:08.606Z,288.60
2022-10-29T17:42:35.371Z,283.85
2022-10-29T17:45:01.937Z,284.30
2022-10-29T17:47:29.449Z,273.70
2022-10-29T17:49:56.191Z,291.65
2022-10-29T17:52:22.676Z,280.90
2022-10-29T17:54:49.281Z,278.05
2022-10-29T17:57:15.799Z,280.30
2022-10-29T17:59:42.339Z,284.47
2022-10-29T18:02:11.151Z,283.70
2022-10-29T18:04:38.119Z,274.08
2022-10-29T18:07:04.787Z,273.25
2022-10-29T18:09:31.366Z,282.75
2022-10-29T18:11:57.893Z,270.05
2022-10-29T18:14:24.684Z,273.52
2022-10-29T18:16:51.261Z,281.20
2022-10-29T18:19:17.841Z,293.75
2022-10-29T18:21:44.459Z,288.63
2022-10-29T18:24:11.100Z,286.73
2022-10-29T18:26:37.719Z,285.02
2022-10-29T18:29:10.966Z,286.75
2022-10-29T18:31:38.001Z,281.80
2022-10-29T18:34:07.488Z,283.75
2022-10-29T18:36:35.655Z,282.90
2022-10-29T18:39:04.103Z,300.00
2022-10-29T18:41:30.884Z,282.73
2022-10-29T18:43:58.615Z,287.77
2022-10-29T18:46:25.553Z,285.73
2022-10-29T18:48:52.427Z,293.38
2022-10-29T18:51:25.052Z,294.33
2022-10-29T18:53:53.362Z,282.38
2022-10-29T18:56:21.858Z,279.02
2022-10-29T18:58:49.001Z,286.00
2022-10-29T19:01:22.703Z,284.63
2022-10-29T19:03:51.535Z,300.98
2022-10-29T19:06:19.343Z,281.25
2022-10-29T19:08:46.456Z,286.33
2022-10-29T19:11:15.582Z,284.77
2022-10-29T19:13:42.386Z,281.93
2022-10-29T19:16:11.424Z,281.45
2022-10-29T19:18:39.259Z,284.50
2022-10-29T19:21:11.639Z,282.45
2022-10-29T19:23:38.581Z,284.70
2022-10-29T19:26:07.321Z,272.55
2022-10-29T19:28:34.692Z,263.30
2022-10-29T19:31:06.404Z,267.10
2022-10-29T19:33:33.155Z,269.67
2022-10-29T19:36:00.220Z,273.20
2022-10-29T19:38:27.439Z,286.40
2022-10-29T19:40:56.887Z,276.77
2022-10-29T19:43:24.398Z,269.67
2022-10-29T19:45:51.840Z,290.90
2022-10-29T19:48:19.019Z,284.10
2022-10-29T19:50:46.783Z,282.33
2022-10-29T19:53:13.553Z,287.42
2022-10-29T19:55:40.685Z,289.92
2022-10-29T19:58:07.711Z,292.30
2022-10-29T20:00:34.245Z,306.13
2022-10-29T20:03:00.951Z,294.40
2022-10-29T20:05:27.750Z,300.52
2022-10-29T20:07:55.930Z,297.45
2022-10-29T20:10:23.958Z,297.80
2022-10-29T20:12:50.608Z,288.17
2022-10-29T20:15:17.293Z,292.77
2022-10-29T20:17:44.001Z,289.30
2022-10-29T20:20:15.723Z,286.05
2022-10-29T20:22:43.699Z,289.70
2022-10-29T20:25:10.347Z,280.35
2022-10-29T20:27:36.914Z,290.48
2022-10-29T20:30:05.261Z,289.20
2022-10-29T20:32:31.902Z,284.65
2022-10-29T20:34:58.484Z,284.45
2022-10-29T20:37:25.164Z,291.80
2022-10-29T20:39:51.711Z,306.15
2022-10-29T20:42:18.429Z,299.98
2022-10-29T20:44:45.931Z,307.45
2022-10-29T20:47:12.573Z,318.13
2022-10-29T20:49:39.132Z,326.65
2022-10-29T20:52:07.182Z,321.42
2022-10-29T20:54:33.928Z,317.35
2022-10-29T20:57:00.487Z,313.80
2022-10-29T20:59:27.020Z,328.40
2022-10-29T21:01:53.769Z,309.83
2022-10-29T21:04:20.435Z,315.48
2022-10-29T21:06:47.068Z,316.33
2022-10-29T21:09:13.575Z,334.90
2022-10-29T21:11:41.383Z,321.43
2022-10-29T21:14:07.861Z,311.70
2022-10-29T21:16:34.458Z,313.83
2022-10-29T21:19:01.983Z,317.17
2022-10-29T21:21:29.445Z,306.35
2022-10-29T21:23:59.193Z,309.20
2022-10-29T21:26:27.264Z,309.35
2022-10-29T21:28:54.401Z,318.38
2022-10-29T21:31:22.470Z,326.55
2022-10-29T21:33:50.925Z,332.77
2022-10-29T21:36:17.788Z,329.13
2022-10-29T21:38:44.428Z,312.90
2022-10-29T21:41:11.075Z,316.08
2022-10-29T21:43:38.674Z,316.30
2022-10-29T21:46:05.780Z,323.25
2022-10-29T21:48:32.414Z,332.08
2022-10-29T21:51:04.591Z,332.55
2022-10-29T21:53:31.741Z,339.10
2022-10-29T21:56:02.254Z,331.40
2022-10-29T21:58:29.259Z,326.65
2022-10-29T22:01:03.974Z,320.58
2022-10-29T22:03:34.963Z,317.08
2022-10-29T22:06:12.490Z,330.00
2022-10-29T22:08:39.643Z,342.13
2022-10-29T22:11:06.880Z,323.30
2022-10-29T22:13:34.631Z,324.05
2022-10-29T22:16:04.015Z,328.70
2022-10-29T22:18:31.624Z,335.33
2022-10-29T22:21:15.463Z,331.20
2022-10-29T22:23:50.043Z,337.70
2022-10-29T22:26:19.311Z,337.37
2022-10-29T22:28:49.931Z,340.70
2022-10-29T22:31:18.592Z,333.23
2022-10-29T22:33:45.660Z,333.43
2022-10-29T22:36:14.988Z,333.13
2022-10-29T22:38:41.893Z,332.52
2022-10-29T22:41:11.244Z,328.27
2022-10-29T22:43:38.233Z,333.92
2022-10-29T22:46:06.077Z,333.27
2022-10-29T22:48:33.067Z,339.38
2022-10-29T22:51:01.912Z,336.08
2022-10-29T22:53:28.616Z,337.27
2022-10-29T22:55:55.262Z,352.55
2022-10-29T22:58:21.922Z,345.17
2022-10-29T23:00:48.559Z,335.17
2022-10-29T23:03:15.129Z,337.27
2022-10-29T23:05:41.709Z,337.38
2022-10-29T23:08:08.227Z,341.20
2022-10-29T23:10:35.817Z,339.13
2022-10-29T23:13:02.452Z,329.55
2022-10-29T23:15:28.996Z,333.35
2022-10-29T23:17:55.787Z,325.67
2022-10-29T23:20:22.603Z,325.73
2022-10-29T23:22:49.082Z,322.10
2022-10-29T23:25:15.680Z,318.73
2022-10-29T23:27:42.219Z,323.90
2022-10-29T23:30:09.523Z,327.50
2022-10-29T23:32:36.102Z,320.30
2022-10-29T23:35:02.701Z,324.05
2022-10-29T23:37:29.322Z,324.83
2022-10-29T23:39:55.828Z,330.65
2022-10-29T23:42:22.430Z,318.58
2022-10-29T23:44:48.942Z,322.92
2022-10-29T23:47:15.500Z,333.35
2022-10-29T23:49:42.051Z,335.80
2022-10-29T23:52:08.634Z,334.60
2022-10-29T23:54:35.173Z,328.60
2022-10-29T23:57:01.819Z,335.17
2022-10-29T23:59:28.358Z,344.38
